sensor_id;sensor_type;location;lat;lon;timestamp;temperature;humidity
70986;DHT22;58645;43.068;25.610;2022-12-24T00:00:21;2.90;99.90
70986;DHT22;58645;43.068;25.610;2022-12-24T00:02:49;2.80;99.90
70986;DHT22;58645;43.068;25.610;2022-12-24T00:05:15;2.70;99.90
70986;DHT22;58645;43.068;25.610;2022-12-24T00:07:40;2.70;99.90
70986;DHT22;58645;43.068;25.610;2022-12-24T00:10:07;2.60;99.90
70986;DHT22;58645;43.068;25.610;2022-12-24T00:12:33;2.60;99.90
70986;DHT22;58645;43.068;25.610;2022-12-24T00:14:59;2.60;99.90
70986;DHT22;58645;43.068;25.610;2022-12-24T00:17:25;2.50;99.90
70986;DHT22;58645;43.068;25.610;2022-12-24T00:19:50;2.50;99.90
70986;DHT22;58645;43.068;25.610;2022-12-24T00:22:16;2.60;99.90
70986;DHT22;58645;43.068;25.610;2022-12-24T00:24:42;2.60;99.90
70986;DHT22;58645;43.068;25.610;2022-12-24T00:27:08;2.70;99.90
70986;DHT22;58645;43.068;25.610;2022-12-24T00:29:33;2.70;99.90
70986;DHT22;58645;43.068;25.610;2022-12-24T00:31:59;2.70;99.90
70986;DHT22;58645;43.068;25.610;2022-12-24T00:34:25;2.70;99.90
70986;DHT22;58645;43.068;25.610;2022-12-24T00:36:51;2.70;99.90
70986;DHT22;58645;43.068;25.610;2022-12-24T00:39:17;2.60;99.90
70986;DHT22;58645;43.068;25.610;2022-12-24T00:41:43;2.60;99.90
70986;DHT22;58645;43.068;25.610;2022-12-24T00:44:08;2.60;99.90
70986;DHT22;58645;43.068;25.610;2022-12-24T00:46:36;2.50;99.90
70986;DHT22;58645;43.068;25.610;2022-12-24T00:49:03;2.50;99.90
70986;DHT22;58645;43.068;25.610;2022-12-24T00:51:30;2.50;99.90
70986;DHT22;58645;43.068;25.610;2022-12-24T00:53:56;2.50;99.90
70986;DHT22;58645;43.068;25.610;2022-12-24T00:56:22;2.50;99.90
70986;DHT22;58645;43.068;25.610;2022-12-24T00:58:48;2.60;99.90
70986;DHT22;58645;43.068;25.610;2022-12-24T01:01:15;2.60;99.90
70986;DHT22;58645;43.068;25.610;2022-12-24T01:03:40;2.60;99.90
70986;DHT22;58645;43.068;25.610;2022-12-24T01:06:12;2.60;99.90
70986;DHT22;58645;43.068;25.610;2022-12-24T01:08:39;2.60;99.90
70986;DHT22;58645;43.068;25.610;2022-12-24T01:11:06;2.60;99.90
70986;DHT22;58645;43.068;25.610;2022-12-24T01:13:32;2.60;99.90
70986;DHT22;58645;43.068;25.610;2022-12-24T01:15:58;2.60;99.90
70986;DHT22;58645;43.068;25.610;2022-12-24T01:18:24;2.60;99.90
70986;DHT22;58645;43.068;25.610;2022-12-24T01:20:58;2.50;99.90
70986;DHT22;58645;43.068;25.610;2022-12-24T01:23:24;2.50;99.90
70986;DHT22;58645;43.068;25.610;2022-12-24T01:25:50;2.50;99.90
70986;DHT22;58645;43.068;25.610;2022-12-24T01:28:16;2.50;99.90
70986;DHT22;58645;43.068;25.610;2022-12-24T01:30:42;2.50;99.90
70986;DHT22;58645;43.068;25.610;2022-12-24T01:33:08;2.40;99.90
70986;DHT22;58645;43.068;25.610;2022-12-24T01:35:33;2.30;99.90
70986;DHT22;58645;43.068;25.610;2022-12-24T01:37:59;2.20;99.90
70986;DHT22;58645;43.068;25.610;2022-12-24T01:40:26;2.20;99.90
70986;DHT22;58645;43.068;25.610;2022-12-24T01:43:20;2.20;99.90
70986;DHT22;58645;43.068;25.610;2022-12-24T01:45:57;2.20;99.90
70986;DHT22;58645;43.068;25.610;2022-12-24T01:48:51;2.20;99.90
70986;DHT22;58645;43.068;25.610;2022-12-24T01:53:54;2.10;99.90
70986;DHT22;58645;43.068;25.610;2022-12-24T01:56:21;2.10;99.90
70986;DHT22;58645;43.068;25.610;2022-12-24T01:58:51;2.10;99.90
70986;DHT22;58645;43.068;25.610;2022-12-24T02:01:17;2.10;99.90
70986;DHT22;58645;43.068;25.610;2022-12-24T02:03:43;2.10;99.90
70986;DHT22;58645;43.068;25.610;2022-12-24T02:06:09;2.00;99.90
70986;DHT22;58645;43.068;25.610;2022-12-24T02:08:37;2.00;99.90
70986;DHT22;58645;43.068;25.610;2022-12-24T02:11:18;2.00;99.90
70986;DHT22;58645;43.068;25.610;2022-12-24T02:13:48;1.90;99.90
70986;DHT22;58645;43.068;25.610;2022-12-24T02:27:16;2.00;99.90
70986;DHT22;58645;43.068;25.610;2022-12-24T02:35:23;1.80;99.90
70986;DHT22;58645;43.068;25.610;2022-12-24T02:38:00;1.70;99.90
70986;DHT22;58645;43.068;25.610;2022-12-24T02:40:32;1.70;99.90
70986;DHT22;58645;43.068;25.610;2022-12-24T02:43:07;1.70;99.90
70986;DHT22;58645;43.068;25.610;2022-12-24T02:45:35;1.70;99.90
70986;DHT22;58645;43.068;25.610;2022-12-24T02:48:01;1.70;99.90
70986;DHT22;58645;43.068;25.610;2022-12-24T02:50:27;1.60;99.90
70986;DHT22;58645;43.068;25.610;2022-12-24T02:52:53;1.60;99.90
70986;DHT22;58645;43.068;25.610;2022-12-24T03:06:50;1.70;99.90
70986;DHT22;58645;43.068;25.610;2022-12-24T03:12:03;1.60;99.90
70986;DHT22;58645;43.068;25.610;2022-12-24T03:14:29;1.50;99.90
70986;DHT22;58645;43.068;25.610;2022-12-24T03:16:57;1.50;99.90
70986;DHT22;58645;43.068;25.610;2022-12-24T03:19:24;1.50;99.90
70986;DHT22;58645;43.068;25.610;2022-12-24T03:21:51;1.40;99.90
70986;DHT22;58645;43.068;25.610;2022-12-24T03:24:19;1.50;99.90
70986;DHT22;58645;43.068;25.610;2022-12-24T03:26:45;1.50;99.90
70986;DHT22;58645;43.068;25.610;2022-12-24T03:29:11;1.50;99.90
70986;DHT22;58645;43.068;25.610;2022-12-24T03:31:46;1.40;99.90
70986;DHT22;58645;43.068;25.610;2022-12-24T03:34:13;1.40;99.90
70986;DHT22;58645;43.068;25.610;2022-12-24T03:36:38;1.40;99.90
70986;DHT22;58645;43.068;25.610;2022-12-24T03:39:05;1.40;99.90
70986;DHT22;58645;43.068;25.610;2022-12-24T03:41:31;1.50;99.90
70986;DHT22;58645;43.068;25.610;2022-12-24T03:43:57;1.50;99.90
70986;DHT22;58645;43.068;25.610;2022-12-24T03:46:23;1.50;99.90
70986;DHT22;58645;43.068;25.610;2022-12-24T03:48:49;1.40;99.90
70986;DHT22;58645;43.068;25.610;2022-12-24T03:51:20;1.30;99.90
70986;DHT22;58645;43.068;25.610;2022-12-24T03:53:46;1.30;99.90
70986;DHT22;58645;43.068;25.610;2022-12-24T03:56:12;1.30;99.90
70986;DHT22;58645;43.068;25.610;2022-12-24T03:58:38;1.30;99.90
70986;DHT22;58645;43.068;25.610;2022-12-24T04:01:04;1.30;99.90
70986;DHT22;58645;43.068;25.610;2022-12-24T04:03:30;1.30;99.90
70986;DHT22;58645;43.068;25.610;2022-12-24T04:06:10;1.30;99.90
70986;DHT22;58645;43.068;25.610;2022-12-24T04:08:36;1.30;99.90
70986;DHT22;58645;43.068;25.610;2022-12-24T04:11:04;1.30;99.90
70986;DHT22;58645;43.068;25.610;2022-12-24T04:13:30;1.20;99.90
70986;DHT22;58645;43.068;25.610;2022-12-24T04:16:05;1.30;99.90
70986;DHT22;58645;43.068;25.610;2022-12-24T04:18:31;1.30;99.90
70986;DHT22;58645;43.068;25.610;2022-12-24T04:20:57;1.30;99.90
70986;DHT22;58645;43.068;25.610;2022-12-24T04:23:23;1.30;99.90
70986;DHT22;58645;43.068;25.610;2022-12-24T04:25:49;1.30;99.90
70986;DHT22;58645;43.068;25.610;2022-12-24T04:28:15;1.30;99.90
70986;DHT22;58645;43.068;25.610;2022-12-24T04:30:42;1.40;99.90
70986;DHT22;58645;43.068;25.610;2022-12-24T04:33:08;1.40;99.90
70986;DHT22;58645;43.068;25.610;2022-12-24T04:35:38;1.40;99.90
70986;DHT22;58645;43.068;25.610;2022-12-24T04:38:05;1.30;99.90
70986;DHT22;58645;43.068;25.610;2022-12-24T04:40:31;1.30;99.90
70986;DHT22;58645;43.068;25.610;2022-12-24T04:42:57;1.30;99.90
70986;DHT22;58645;43.068;25.610;2022-12-24T04:45:23;1.20;99.90
70986;DHT22;58645;43.068;25.610;2022-12-24T04:47:48;1.20;99.90
70986;DHT22;58645;43.068;25.610;2022-12-24T04:50:14;1.20;99.90
70986;DHT22;58645;43.068;25.610;2022-12-24T04:52:40;1.20;99.90
70986;DHT22;58645;43.068;25.610;2022-12-24T04:55:06;1.10;99.90
70986;DHT22;58645;43.068;25.610;2022-12-24T04:57:33;1.10;99.90
70986;DHT22;58645;43.068;25.610;2022-12-24T05:00:00;1.00;99.90
70986;DHT22;58645;43.068;25.610;2022-12-24T05:02:26;1.00;99.90
70986;DHT22;58645;43.068;25.610;2022-12-24T05:04:52;1.10;99.90
70986;DHT22;58645;43.068;25.610;2022-12-24T05:07:18;1.10;99.90
70986;DHT22;58645;43.068;25.610;2022-12-24T05:09:43;1.10;99.90
70986;DHT22;58645;43.068;25.610;2022-12-24T05:12:09;1.10;99.90
70986;DHT22;58645;43.068;25.610;2022-12-24T05:14:35;1.10;99.90
70986;DHT22;58645;43.068;25.610;2022-12-24T05:17:01;1.10;99.90
70986;DHT22;58645;43.068;25.610;2022-12-24T05:19:26;1.10;99.90
70986;DHT22;58645;43.068;25.610;2022-12-24T05:21:52;1.10;99.90
70986;DHT22;58645;43.068;25.610;2022-12-24T05:24:36;1.10;99.90
70986;DHT22;58645;43.068;25.610;2022-12-24T05:27:20;1.10;99.90
70986;DHT22;58645;43.068;25.610;2022-12-24T05:29:46;1.10;99.90
70986;DHT22;58645;43.068;25.610;2022-12-24T05:32:12;1.10;99.90
70986;DHT22;58645;43.068;25.610;2022-12-24T05:34:38;1.10;99.90
70986;DHT22;58645;43.068;25.610;2022-12-24T05:37:03;1.10;99.90
70986;DHT22;58645;43.068;25.610;2022-12-24T05:39:29;1.10;99.90
70986;DHT22;58645;43.068;25.610;2022-12-24T05:41:55;1.00;99.90
70986;DHT22;58645;43.068;25.610;2022-12-24T05:44:20;1.00;99.90
70986;DHT22;58645;43.068;25.610;2022-12-24T05:46:46;1.00;99.90
70986;DHT22;58645;43.068;25.610;2022-12-24T05:49:13;1.10;99.90
70986;DHT22;58645;43.068;25.610;2022-12-24T05:51:38;1.10;99.90
70986;DHT22;58645;43.068;25.610;2022-12-24T05:54:04;1.20;99.90
70986;DHT22;58645;43.068;25.610;2022-12-24T05:56:30;1.20;99.90
70986;DHT22;58645;43.068;25.610;2022-12-24T05:58:56;1.20;99.90
70986;DHT22;58645;43.068;25.610;2022-12-24T06:01:23;1.30;99.90
70986;DHT22;58645;43.068;25.610;2022-12-24T06:03:49;1.40;99.90
70986;DHT22;58645;43.068;25.610;2022-12-24T06:06:21;1.40;99.90
70986;DHT22;58645;43.068;25.610;2022-12-24T06:08:48;1.50;99.90
70986;DHT22;58645;43.068;25.610;2022-12-24T06:11:16;1.50;99.90
70986;DHT22;58645;43.068;25.610;2022-12-24T06:13:42;1.60;99.90
70986;DHT22;58645;43.068;25.610;2022-12-24T06:16:11;1.80;99.90
70986;DHT22;58645;43.068;25.610;2022-12-24T06:18:37;2.10;99.90
70986;DHT22;58645;43.068;25.610;2022-12-24T06:21:04;2.60;99.90
70986;DHT22;58645;43.068;25.610;2022-12-24T06:23:31;3.30;99.90
70986;DHT22;58645;43.068;25.610;2022-12-24T06:25:58;3.40;99.90
70986;DHT22;58645;43.068;25.610;2022-12-24T06:28:32;3.30;99.90
70986;DHT22;58645;43.068;25.610;2022-12-24T06:30:59;3.50;99.90
70986;DHT22;58645;43.068;25.610;2022-12-24T06:33:25;3.60;99.90
70986;DHT22;58645;43.068;25.610;2022-12-24T06:35:51;4.20;99.90
70986;DHT22;58645;43.068;25.610;2022-12-24T06:38:17;5.00;99.90
70986;DHT22;58645;43.068;25.610;2022-12-24T06:40:44;5.40;99.90
70986;DHT22;58645;43.068;25.610;2022-12-24T06:43:11;5.80;99.90
70986;DHT22;58645;43.068;25.610;2022-12-24T06:45:37;6.80;99.90
70986;DHT22;58645;43.068;25.610;2022-12-24T06:48:04;7.80;99.40
70986;DHT22;58645;43.068;25.610;2022-12-24T06:50:32;8.60;91.70
70986;DHT22;58645;43.068;25.610;2022-12-24T06:52:58;9.30;85.70
70986;DHT22;58645;43.068;25.610;2022-12-24T06:55:24;10.10;80.30
70986;DHT22;58645;43.068;25.610;2022-12-24T06:57:49;10.70;75.60
70986;DHT22;58645;43.068;25.610;2022-12-24T07:00:15;10.90;73.30
70986;DHT22;58645;43.068;25.610;2022-12-24T07:02:43;11.40;72.00
70986;DHT22;58645;43.068;25.610;2022-12-24T07:05:10;12.00;67.40
70986;DHT22;58645;43.068;25.610;2022-12-24T07:07:37;12.10;65.60
70986;DHT22;58645;43.068;25.610;2022-12-24T07:10:04;12.10;64.70
70986;DHT22;58645;43.068;25.610;2022-12-24T07:12:29;11.70;66.20
70986;DHT22;58645;43.068;25.610;2022-12-24T07:14:55;11.70;66.20
70986;DHT22;58645;43.068;25.610;2022-12-24T07:17:21;11.20;66.80
70986;DHT22;58645;43.068;25.610;2022-12-24T07:19:46;10.80;68.50
70986;DHT22;58645;43.068;25.610;2022-12-24T07:22:12;10.70;69.40
70986;DHT22;58645;43.068;25.610;2022-12-24T07:24:38;10.70;69.60
70986;DHT22;58645;43.068;25.610;2022-12-24T07:27:04;11.00;68.60
70986;DHT22;58645;43.068;25.610;2022-12-24T07:29:29;11.00;68.10
70986;DHT22;58645;43.068;25.610;2022-12-24T07:31:55;10.60;68.70
70986;DHT22;58645;43.068;25.610;2022-12-24T07:34:21;10.40;71.10
70986;DHT22;58645;43.068;25.610;2022-12-24T07:36:46;10.10;71.90
70986;DHT22;58645;43.068;25.610;2022-12-24T07:39:12;10.00;73.00
70986;DHT22;58645;43.068;25.610;2022-12-24T07:41:38;10.20;72.00
70986;DHT22;58645;43.068;25.610;2022-12-24T07:44:03;10.70;70.90
70986;DHT22;58645;43.068;25.610;2022-12-24T07:46:29;11.20;68.70
70986;DHT22;58645;43.068;25.610;2022-12-24T07:48:55;11.40;67.80
70986;DHT22;58645;43.068;25.610;2022-12-24T07:51:21;11.10;67.70
70986;DHT22;58645;43.068;25.610;2022-12-24T07:53:46;10.90;69.10
70986;DHT22;58645;43.068;25.610;2022-12-24T07:56:14;11.40;68.40
70986;DHT22;58645;43.068;25.610;2022-12-24T07:58:40;11.60;67.90
70986;DHT22;58645;43.068;25.610;2022-12-24T08:01:06;11.60;68.90
70986;DHT22;58645;43.068;25.610;2022-12-24T08:03:32;11.30;69.30
70986;DHT22;58645;43.068;25.610;2022-12-24T08:05:58;11.00;70.50
70986;DHT22;58645;43.068;25.610;2022-12-24T08:08:24;10.70;71.80
70986;DHT22;58645;43.068;25.610;2022-12-24T08:10:50;10.30;72.90
70986;DHT22;58645;43.068;25.610;2022-12-24T08:13:16;10.00;74.30
70986;DHT22;58645;43.068;25.610;2022-12-24T08:15:42;9.90;75.00
70986;DHT22;58645;43.068;25.610;2022-12-24T08:18:09;9.80;75.70
70986;DHT22;58645;43.068;25.610;2022-12-24T08:20:40;10.40;74.90
70986;DHT22;58645;43.068;25.610;2022-12-24T08:23:06;11.10;72.30
70986;DHT22;58645;43.068;25.610;2022-12-24T08:25:33;11.30;71.20
70986;DHT22;58645;43.068;25.610;2022-12-24T08:27:58;11.10;72.30
70986;DHT22;58645;43.068;25.610;2022-12-24T08:30:24;11.80;71.20
70986;DHT22;58645;43.068;25.610;2022-12-24T08:32:50;12.40;69.10
70986;DHT22;58645;43.068;25.610;2022-12-24T08:35:16;12.20;69.30
70986;DHT22;58645;43.068;25.610;2022-12-24T08:37:42;11.80;70.50
70986;DHT22;58645;43.068;25.610;2022-12-24T08:40:08;11.30;72.40
70986;DHT22;58645;43.068;25.610;2022-12-24T08:42:34;11.00;74.00
70986;DHT22;58645;43.068;25.610;2022-12-24T08:45:00;10.70;75.80
70986;DHT22;58645;43.068;25.610;2022-12-24T08:47:26;10.50;76.00
70986;DHT22;58645;43.068;25.610;2022-12-24T08:49:51;10.30;76.00
70986;DHT22;58645;43.068;25.610;2022-12-24T08:52:17;10.40;76.80
70986;DHT22;58645;43.068;25.610;2022-12-24T08:54:43;10.70;76.50
70986;DHT22;58645;43.068;25.610;2022-12-24T08:57:08;10.80;76.20
70986;DHT22;58645;43.068;25.610;2022-12-24T08:59:34;10.80;76.60
70986;DHT22;58645;43.068;25.610;2022-12-24T09:02:00;10.70;77.30
70986;DHT22;58645;43.068;25.610;2022-12-24T09:04:27;10.60;77.40
70986;DHT22;58645;43.068;25.610;2022-12-24T09:06:52;10.50;78.50
70986;DHT22;58645;43.068;25.610;2022-12-24T09:09:18;10.60;78.50
70986;DHT22;58645;43.068;25.610;2022-12-24T09:11:44;10.70;78.60
70986;DHT22;58645;43.068;25.610;2022-12-24T09:14:10;10.70;79.40
70986;DHT22;58645;43.068;25.610;2022-12-24T09:16:35;10.70;79.80
70986;DHT22;58645;43.068;25.610;2022-12-24T09:19:02;10.90;80.30
70986;DHT22;58645;43.068;25.610;2022-12-24T09:21:28;11.00;80.00
70986;DHT22;58645;43.068;25.610;2022-12-24T09:23:53;11.30;78.80
70986;DHT22;58645;43.068;25.610;2022-12-24T09:26:24;11.40;78.10
70986;DHT22;58645;43.068;25.610;2022-12-24T09:28:51;11.40;77.40
70986;DHT22;58645;43.068;25.610;2022-12-24T09:31:18;11.50;77.80
70986;DHT22;58645;43.068;25.610;2022-12-24T09:33:45;11.30;78.30
70986;DHT22;58645;43.068;25.610;2022-12-24T09:36:11;11.20;78.40
70986;DHT22;58645;43.068;25.610;2022-12-24T09:38:38;11.10;78.80
70986;DHT22;58645;43.068;25.610;2022-12-24T09:43:36;10.90;80.30
70986;DHT22;58645;43.068;25.610;2022-12-24T09:46:19;10.90;80.40
70986;DHT22;58645;43.068;25.610;2022-12-24T09:48:50;10.80;81.20
70986;DHT22;58645;43.068;25.610;2022-12-24T09:51:23;10.80;81.10
70986;DHT22;58645;43.068;25.610;2022-12-24T09:56:42;10.70;82.30
70986;DHT22;58645;43.068;25.610;2022-12-24T09:59:13;10.70;81.80
70986;DHT22;58645;43.068;25.610;2022-12-24T10:01:39;10.70;82.40
70986;DHT22;58645;43.068;25.610;2022-12-24T10:04:16;10.60;82.80
70986;DHT22;58645;43.068;25.610;2022-12-24T10:12:36;10.60;84.00
70986;DHT22;58645;43.068;25.610;2022-12-24T10:15:10;10.60;84.60
70986;DHT22;58645;43.068;25.610;2022-12-24T10:31:14;10.40;82.70
70986;DHT22;58645;43.068;25.610;2022-12-24T10:33:43;10.50;83.10
70986;DHT22;58645;43.068;25.610;2022-12-24T10:36:16;10.50;83.20
70986;DHT22;58645;43.068;25.610;2022-12-24T10:38:44;10.60;82.80
70986;DHT22;58645;43.068;25.610;2022-12-24T10:41:10;10.70;82.80
70986;DHT22;58645;43.068;25.610;2022-12-24T10:43:37;10.80;82.50
70986;DHT22;58645;43.068;25.610;2022-12-24T10:46:16;10.90;82.10
70986;DHT22;58645;43.068;25.610;2022-12-24T10:48:48;11.00;82.20
70986;DHT22;58645;43.068;25.610;2022-12-24T10:54:17;11.20;82.00
70986;DHT22;58645;43.068;25.610;2022-12-24T10:56:46;11.30;81.70
70986;DHT22;58645;43.068;25.610;2022-12-24T11:02:25;11.50;81.10
70986;DHT22;58645;43.068;25.610;2022-12-24T11:04:52;11.50;81.10
70986;DHT22;58645;43.068;25.610;2022-12-24T11:07:20;11.50;81.80
70986;DHT22;58645;43.068;25.610;2022-12-24T11:09:58;11.40;81.50
70986;DHT22;58645;43.068;25.610;2022-12-24T11:12:39;11.30;82.40
70986;DHT22;58645;43.068;25.610;2022-12-24T11:17:51;11.30;84.30
70986;DHT22;58645;43.068;25.610;2022-12-24T11:20:22;11.30;85.10
70986;DHT22;58645;43.068;25.610;2022-12-24T11:22:49;11.30;84.00
70986;DHT22;58645;43.068;25.610;2022-12-24T11:27:47;11.20;83.80
70986;DHT22;58645;43.068;25.610;2022-12-24T11:30:30;11.20;84.60
70986;DHT22;58645;43.068;25.610;2022-12-24T11:35:25;11.20;84.90
70986;DHT22;58645;43.068;25.610;2022-12-24T11:40:41;11.30;85.00
70986;DHT22;58645;43.068;25.610;2022-12-24T11:43:20;11.40;86.10
70986;DHT22;58645;43.068;25.610;2022-12-24T11:45:54;11.50;86.60
70986;DHT22;58645;43.068;25.610;2022-12-24T11:48:26;11.70;84.50
70986;DHT22;58645;43.068;25.610;2022-12-24T11:53:47;12.60;81.70
70986;DHT22;58645;43.068;25.610;2022-12-24T11:56:36;13.10;79.60
70986;DHT22;58645;43.068;25.610;2022-12-24T11:59:13;13.60;79.10
70986;DHT22;58645;43.068;25.610;2022-12-24T12:04:21;13.60;77.70
70986;DHT22;58645;43.068;25.610;2022-12-24T12:06:56;13.60;76.50
70986;DHT22;58645;43.068;25.610;2022-12-24T12:09:23;13.70;76.30
70986;DHT22;58645;43.068;25.610;2022-12-24T12:11:56;13.70;77.20
70986;DHT22;58645;43.068;25.610;2022-12-24T12:14:34;13.70;75.90
70986;DHT22;58645;43.068;25.610;2022-12-24T12:17:35;13.60;76.30
70986;DHT22;58645;43.068;25.610;2022-12-24T12:23:28;13.40;76.50
70986;DHT22;58645;43.068;25.610;2022-12-24T12:26:09;13.40;77.20
70986;DHT22;58645;43.068;25.610;2022-12-24T12:28:56;13.60;77.00
70986;DHT22;58645;43.068;25.610;2022-12-24T12:31:34;13.60;77.20
70986;DHT22;58645;43.068;25.610;2022-12-24T12:36:33;13.30;79.50
70986;DHT22;58645;43.068;25.610;2022-12-24T12:39:00;13.10;79.90
70986;DHT22;58645;43.068;25.610;2022-12-24T12:50:02;12.70;81.40
70986;DHT22;58645;43.068;25.610;2022-12-24T12:52:40;12.50;82.20
70986;DHT22;58645;43.068;25.610;2022-12-24T12:57:50;12.50;84.60
70986;DHT22;58645;43.068;25.610;2022-12-24T13:00:18;12.50;85.40
70986;DHT22;58645;43.068;25.610;2022-12-24T13:22:34;12.30;83.30
70986;DHT22;58645;43.068;25.610;2022-12-24T13:25:00;12.30;85.00
70986;DHT22;58645;43.068;25.610;2022-12-24T13:27:33;12.20;87.60
70986;DHT22;58645;43.068;25.610;2022-12-24T13:35:01;11.90;90.90
70986;DHT22;58645;43.068;25.610;2022-12-24T13:48:13;11.70;92.00
70986;DHT22;58645;43.068;25.610;2022-12-24T13:50:50;11.70;93.00
70986;DHT22;58645;43.068;25.610;2022-12-24T13:56:02;11.70;94.10
70986;DHT22;58645;43.068;25.610;2022-12-24T13:58:29;11.70;95.00
70986;DHT22;58645;43.068;25.610;2022-12-24T14:00:59;11.60;95.20
70986;DHT22;58645;43.068;25.610;2022-12-24T14:06:23;11.60;99.90
70986;DHT22;58645;43.068;25.610;2022-12-24T14:08:53;11.50;99.90
70986;DHT22;58645;43.068;25.610;2022-12-24T14:11:23;11.50;99.90
70986;DHT22;58645;43.068;25.610;2022-12-24T14:16:27;11.50;99.90
70986;DHT22;58645;43.068;25.610;2022-12-24T14:21:27;11.40;99.90
70986;DHT22;58645;43.068;25.610;2022-12-24T14:23:56;11.40;99.90
70986;DHT22;58645;43.068;25.610;2022-12-24T14:26:27;11.30;99.90
70986;DHT22;58645;43.068;25.610;2022-12-24T14:28:56;11.30;99.90
70986;DHT22;58645;43.068;25.610;2022-12-24T14:31:22;11.20;99.90
70986;DHT22;58645;43.068;25.610;2022-12-24T14:33:48;11.10;99.90
70986;DHT22;58645;43.068;25.610;2022-12-24T14:36:19;11.00;99.90
70986;DHT22;58645;43.068;25.610;2022-12-24T14:38:46;11.00;99.90
70986;DHT22;58645;43.068;25.610;2022-12-24T14:43:59;10.90;99.90
70986;DHT22;58645;43.068;25.610;2022-12-24T14:46:52;10.80;99.90
70986;DHT22;58645;43.068;25.610;2022-12-24T14:49:18;10.70;99.90
70986;DHT22;58645;43.068;25.610;2022-12-24T14:54:39;10.60;99.90
70986;DHT22;58645;43.068;25.610;2022-12-24T14:57:26;10.60;99.90
70986;DHT22;58645;43.068;25.610;2022-12-24T14:59:57;10.60;99.90
70986;DHT22;58645;43.068;25.610;2022-12-24T15:02:45;10.50;99.90
70986;DHT22;58645;43.068;25.610;2022-12-24T15:05:18;10.40;99.90
70986;DHT22;58645;43.068;25.610;2022-12-24T15:08:13;10.40;99.90
70986;DHT22;58645;43.068;25.610;2022-12-24T15:10:42;10.30;99.90
70986;DHT22;58645;43.068;25.610;2022-12-24T15:13:41;10.20;99.90
70986;DHT22;58645;43.068;25.610;2022-12-24T15:16:11;10.20;99.90
70986;DHT22;58645;43.068;25.610;2022-12-24T15:18:42;10.10;99.90
70986;DHT22;58645;43.068;25.610;2022-12-24T15:21:48;10.10;99.90
70986;DHT22;58645;43.068;25.610;2022-12-24T15:24:33;10.10;99.90
70986;DHT22;58645;43.068;25.610;2022-12-24T15:27:01;10.10;99.90
70986;DHT22;58645;43.068;25.610;2022-12-24T15:29:37;10.00;99.90
70986;DHT22;58645;43.068;25.610;2022-12-24T15:32:03;10.10;99.90
70986;DHT22;58645;43.068;25.610;2022-12-24T15:34:35;10.00;99.90
70986;DHT22;58645;43.068;25.610;2022-12-24T15:37:25;10.00;99.90
70986;DHT22;58645;43.068;25.610;2022-12-24T15:39:57;10.00;99.90
70986;DHT22;58645;43.068;25.610;2022-12-24T15:42:26;9.90;99.90
70986;DHT22;58645;43.068;25.610;2022-12-24T15:45:02;9.90;99.90
70986;DHT22;58645;43.068;25.610;2022-12-24T15:47:40;9.90;99.90
70986;DHT22;58645;43.068;25.610;2022-12-24T15:50:32;9.90;99.90
70986;DHT22;58645;43.068;25.610;2022-12-24T15:53:02;9.90;99.90
70986;DHT22;58645;43.068;25.610;2022-12-24T15:55:43;9.90;99.90
70986;DHT22;58645;43.068;25.610;2022-12-24T15:58:22;9.90;99.90
70986;DHT22;58645;43.068;25.610;2022-12-24T16:03:41;9.90;99.90
70986;DHT22;58645;43.068;25.610;2022-12-24T16:06:19;9.90;99.90
70986;DHT22;58645;43.068;25.610;2022-12-24T16:08:45;9.90;99.90
70986;DHT22;58645;43.068;25.610;2022-12-24T16:11:33;9.90;99.90
70986;DHT22;58645;43.068;25.610;2022-12-24T16:16:38;9.90;99.90
70986;DHT22;58645;43.068;25.610;2022-12-24T16:19:06;9.90;99.90
70986;DHT22;58645;43.068;25.610;2022-12-24T16:21:39;9.90;99.90
70986;DHT22;58645;43.068;25.610;2022-12-24T16:24:18;9.90;99.90
70986;DHT22;58645;43.068;25.610;2022-12-24T16:26:44;9.80;99.90
70986;DHT22;58645;43.068;25.610;2022-12-24T16:29:11;9.80;99.90
70986;DHT22;58645;43.068;25.610;2022-12-24T16:31:46;9.80;99.90
70986;DHT22;58645;43.068;25.610;2022-12-24T16:34:14;9.80;99.90
70986;DHT22;58645;43.068;25.610;2022-12-24T16:36:42;9.80;99.90
70986;DHT22;58645;43.068;25.610;2022-12-24T16:39:19;9.80;99.90
70986;DHT22;58645;43.068;25.610;2022-12-24T16:41:52;9.70;99.90
70986;DHT22;58645;43.068;25.610;2022-12-24T16:44:37;9.70;99.90
70986;DHT22;58645;43.068;25.610;2022-12-24T16:47:11;9.70;99.90
70986;DHT22;58645;43.068;25.610;2022-12-24T16:49:37;9.70;99.90
70986;DHT22;58645;43.068;25.610;2022-12-24T16:52:05;9.60;99.90
70986;DHT22;58645;43.068;25.610;2022-12-24T16:54:31;9.60;99.90
70986;DHT22;58645;43.068;25.610;2022-12-24T16:56:56;9.60;99.90
70986;DHT22;58645;43.068;25.610;2022-12-24T16:59:23;9.50;99.90
70986;DHT22;58645;43.068;25.610;2022-12-24T17:01:49;9.50;99.90
70986;DHT22;58645;43.068;25.610;2022-12-24T17:04:16;9.40;99.90
70986;DHT22;58645;43.068;25.610;2022-12-24T17:06:43;9.40;99.90
70986;DHT22;58645;43.068;25.610;2022-12-24T17:09:10;9.40;99.90
70986;DHT22;58645;43.068;25.610;2022-12-24T17:11:36;9.40;99.90
70986;DHT22;58645;43.068;25.610;2022-12-24T17:14:02;9.40;99.90
70986;DHT22;58645;43.068;25.610;2022-12-24T17:16:28;9.50;99.90
70986;DHT22;58645;43.068;25.610;2022-12-24T17:18:54;9.50;99.90
70986;DHT22;58645;43.068;25.610;2022-12-24T17:21:20;9.50;99.90
70986;DHT22;58645;43.068;25.610;2022-12-24T17:23:46;9.50;99.90
70986;DHT22;58645;43.068;25.610;2022-12-24T17:26:12;9.50;99.90
70986;DHT22;58645;43.068;25.610;2022-12-24T17:28:39;9.60;99.90
70986;DHT22;58645;43.068;25.610;2022-12-24T17:31:09;9.70;99.90
70986;DHT22;58645;43.068;25.610;2022-12-24T17:33:35;9.70;99.90
70986;DHT22;58645;43.068;25.610;2022-12-24T17:36:01;9.70;99.90
70986;DHT22;58645;43.068;25.610;2022-12-24T17:38:27;9.70;99.90
70986;DHT22;58645;43.068;25.610;2022-12-24T17:41:00;9.70;99.90
70986;DHT22;58645;43.068;25.610;2022-12-24T17:43:25;9.60;99.90
70986;DHT22;58645;43.068;25.610;2022-12-24T17:45:51;9.60;99.90
70986;DHT22;58645;43.068;25.610;2022-12-24T17:48:17;9.60;99.90
70986;DHT22;58645;43.068;25.610;2022-12-24T17:50:42;9.50;99.90
70986;DHT22;58645;43.068;25.610;2022-12-24T17:53:08;9.50;99.90
70986;DHT22;58645;43.068;25.610;2022-12-24T17:55:38;9.50;99.90
70986;DHT22;58645;43.068;25.610;2022-12-24T17:58:04;9.60;99.90
70986;DHT22;58645;43.068;25.610;2022-12-24T18:00:32;9.50;99.90
70986;DHT22;58645;43.068;25.610;2022-12-24T18:02:58;9.50;99.90
70986;DHT22;58645;43.068;25.610;2022-12-24T18:05:24;9.60;99.90
70986;DHT22;58645;43.068;25.610;2022-12-24T18:07:50;9.60;99.90
70986;DHT22;58645;43.068;25.610;2022-12-24T18:10:15;9.60;99.90